Time;durP1;ratioP1;P1;durP2;ratioP2;P2;SDS_P1;SDS_P2;PMS_P1;PMS_P2;Temp;Humidity;BMP_temperature;BMP_pressure;BME280_temperature;BME280_humidity;BME280_pressure;Samples;Min_cycle;Max_cycle;Signal;HPM_P1;HPM_P2
2021/10/07 00:00:53;;;;;;;3.97;2.05;;;;;;;;;;4954628;28;20018;-58
2021/10/07 00:03:18;;;;;;;8.05;2.88;;;;;;;;;;4968238;28;20027;-57
2021/10/07 00:05:43;;;;;;;3.28;2.22;;;;;;;;;;4963300;28;20023;-57
2021/10/07 00:08:09;;;;;;;4.10;2.22;;;;;;;;;;4965892;28;20094;-57
2021/10/07 00:10:34;;;;;;;10.02;2.72;;;;;;;;;;4968913;28;20118;-57
2021/10/07 00:13:00;;;;;;;5.50;2.33;;;;;;;;;;4969702;28;20034;-57
2021/10/07 00:15:25;;;;;;;5.95;2.10;;;;;;;;;;4965681;28;20078;-56
2021/10/07 00:17:51;;;;;;;4.45;2.58;;;;;;;;;;4959281;28;20045;-56
2021/10/07 00:20:16;;;;;;;5.45;2.30;;;;;;;;;;4970247;28;20037;-56
2021/10/07 00:22:43;;;;;;;3.53;2.03;;;;;;;;;;4967491;28;20114;-57
2021/10/07 00:25:13;;;;;;;6.72;2.20;;;;;;;;;;4950361;28;20105;-56
2021/10/07 00:27:39;;;;;;;4.68;2.00;;;;;;;;;;4971056;28;20030;-56
2021/10/07 00:30:14;;;;;;;5.10;2.25;;;;;;;;;;4966843;28;20031;-57
2021/10/07 00:32:55;;;;;;;4.97;1.75;;;;;;;;;;4967707;28;20141;-58
2021/10/07 00:40:32;;;;;;;3.30;1.95;;;;;;;;;;4967610;28;20037;-58
2021/10/07 00:42:58;;;;;;;5.15;1.77;;;;;;;;;;4945777;28;20027;-57
2021/10/07 00:45:23;;;;;;;4.57;2.03;;;;;;;;;;4950027;28;20446;-57
2021/10/07 00:47:49;;;;;;;3.67;2.00;;;;;;;;;;4963839;28;20040;-57
2021/10/07 00:50:14;;;;;;;4.60;2.28;;;;;;;;;;4967059;28;20482;-57
2021/10/07 00:52:40;;;;;;;8.98;2.53;;;;;;;;;;4963384;28;20454;-57
2021/10/07 00:55:08;;;;;;;4.55;2.03;;;;;;;;;;4963977;28;20035;-57
2021/10/07 00:57:33;;;;;;;2.80;2.35;;;;;;;;;;4965799;28;20039;-58
2021/10/07 00:59:59;;;;;;;3.10;2.28;;;;;;;;;;4962592;28;20019;-57
2021/10/07 01:02:24;;;;;;;7.75;2.33;;;;;;;;;;4970542;28;20552;-58
2021/10/07 01:04:50;;;;;;;5.28;2.28;;;;;;;;;;4966287;28;20033;-57
2021/10/07 01:07:18;;;;;;;3.03;1.98;;;;;;;;;;4967683;28;20496;-56
2021/10/07 01:09:45;;;;;;;5.10;2.20;;;;;;;;;;4963989;28;20030;-59
2021/10/07 01:12:11;;;;;;;3.55;2.33;;;;;;;;;;4969558;28;20440;-57
2021/10/07 01:14:44;;;;;;;5.65;2.55;;;;;;;;;;4966647;28;20035;-58
2021/10/07 01:17:12;;;;;;;4.35;2.55;;;;;;;;;;4963515;28;20040;-57
2021/10/07 01:19:39;;;;;;;7.32;2.20;;;;;;;;;;4972114;28;20114;-57
2021/10/07 01:22:06;;;;;;;3.40;1.95;;;;;;;;;;4969161;28;20042;-57
2021/10/07 01:24:31;;;;;;;5.07;2.10;;;;;;;;;;4949327;28;20442;-57
2021/10/07 01:26:57;;;;;;;10.15;2.45;;;;;;;;;;4968744;28;20117;-56
2021/10/07 01:29:22;;;;;;;3.85;2.13;;;;;;;;;;4966964;28;20037;-56
2021/10/07 01:31:47;;;;;;;7.15;2.45;;;;;;;;;;4965620;28;20063;-57
2021/10/07 01:34:20;;;;;;;6.47;2.50;;;;;;;;;;4966646;28;20034;-56
2021/10/07 01:36:46;;;;;;;5.85;2.05;;;;;;;;;;4972199;28;20125;-57
2021/10/07 01:39:11;;;;;;;4.72;2.13;;;;;;;;;;4965594;28;20134;-57
2021/10/07 01:41:37;;;;;;;5.13;2.08;;;;;;;;;;4968760;28;20030;-57
2021/10/07 01:44:02;;;;;;;2.47;2.08;;;;;;;;;;4964873;28;20113;-56
2021/10/07 01:46:27;;;;;;;6.63;2.15;;;;;;;;;;4966817;28;20386;-57
2021/10/07 01:48:53;;;;;;;8.75;1.95;;;;;;;;;;4949769;28;20134;-57
2021/10/07 01:51:18;;;;;;;4.32;2.08;;;;;;;;;;4966891;28;20499;-57
2021/10/07 01:53:44;;;;;;;2.10;1.70;;;;;;;;;;4966345;28;20058;-56
2021/10/07 01:56:09;;;;;;;3.10;1.85;;;;;;;;;;4973098;28;20023;-57
2021/10/07 01:58:35;;;;;;;5.38;2.17;;;;;;;;;;4965260;28;20105;-57
2021/10/07 02:01:00;;;;;;;2.70;1.70;;;;;;;;;;4963500;28;20031;-57
2021/10/07 02:03:25;;;;;;;5.20;2.15;;;;;;;;;;4948167;28;20026;-57
2021/10/07 02:05:51;;;;;;;3.95;2.25;;;;;;;;;;4964942;28;20042;-56
2021/10/07 02:08:16;;;;;;;3.05;1.98;;;;;;;;;;4949322;28;20050;-57
2021/10/07 02:10:42;;;;;;;5.70;2.00;;;;;;;;;;4963021;28;20026;-57
2021/10/07 02:13:07;;;;;;;3.65;1.83;;;;;;;;;;4966713;28;20368;-57
2021/10/07 02:15:33;;;;;;;2.92;1.70;;;;;;;;;;4971337;28;20062;-58
2021/10/07 02:17:58;;;;;;;2.20;1.77;;;;;;;;;;4963958;28;20027;-56
2021/10/07 02:20:24;;;;;;;5.65;2.05;;;;;;;;;;4963468;28;20103;-57
2021/10/07 02:22:49;;;;;;;3.75;2.10;;;;;;;;;;4952985;28;20046;-57
2021/10/07 02:25:15;;;;;;;3.72;2.10;;;;;;;;;;4963697;28;20394;-56
2021/10/07 02:27:40;;;;;;;4.93;2.28;;;;;;;;;;4967922;28;20027;-57
2021/10/07 02:30:08;;;;;;;3.17;1.60;;;;;;;;;;4965413;28;20038;-57
2021/10/07 02:32:34;;;;;;;3.60;2.22;;;;;;;;;;4963058;28;20039;-57
2021/10/07 02:34:59;;;;;;;7.47;3.67;;;;;;;;;;4964235;28;20037;-57
2021/10/07 02:37:25;;;;;;;8.77;3.92;;;;;;;;;;4948764;28;20164;-56
2021/10/07 02:39:50;;;;;;;9.48;4.75;;;;;;;;;;4968488;28;20389;-57
2021/10/07 02:42:15;;;;;;;8.93;3.72;;;;;;;;;;4965063;28;20117;-57
2021/10/07 02:44:41;;;;;;;6.18;3.20;;;;;;;;;;4969102;28;20410;-57
2021/10/07 02:47:06;;;;;;;6.18;3.08;;;;;;;;;;4970670;28;20046;-57
2021/10/07 02:49:32;;;;;;;3.17;1.80;;;;;;;;;;4960330;28;20041;-58
2021/10/07 02:51:57;;;;;;;4.95;2.40;;;;;;;;;;4969347;28;20405;-56
2021/10/07 02:54:23;;;;;;;2.30;1.95;;;;;;;;;;4966284;28;20521;-57
2021/10/07 02:56:48;;;;;;;3.03;1.80;;;;;;;;;;4949476;28;20031;-56
2021/10/07 02:59:14;;;;;;;2.65;1.70;;;;;;;;;;4966212;28;20062;-57
2021/10/07 03:01:39;;;;;;;3.58;1.95;;;;;;;;;;4966440;28;20114;-56
2021/10/07 03:04:04;;;;;;;4.57;2.08;;;;;;;;;;4968972;28;20097;-57
2021/10/07 03:06:30;;;;;;;3.85;2.10;;;;;;;;;;4969853;28;20111;-57
2021/10/07 03:08:58;;;;;;;4.75;2.60;;;;;;;;;;4969014;28;20030;-57
2021/10/07 03:11:24;;;;;;;3.25;1.77;;;;;;;;;;4972735;28;20069;-57
2021/10/07 03:13:49;;;;;;;4.65;3.53;;;;;;;;;;4968928;28;20065;-57
2021/10/07 03:16:15;;;;;;;3.80;3.20;;;;;;;;;;4962443;28;20121;-57
2021/10/07 03:18:40;;;;;;;5.22;2.75;;;;;;;;;;4956244;28;20034;-56
2021/10/07 03:21:05;;;;;;;4.22;2.70;;;;;;;;;;4967875;28;20046;-57
2021/10/07 03:23:31;;;;;;;6.57;2.95;;;;;;;;;;4950872;28;20476;-56
2021/10/07 03:25:56;;;;;;;4.90;2.17;;;;;;;;;;4972356;28;20080;-57
2021/10/07 03:28:22;;;;;;;4.40;1.80;;;;;;;;;;4952868;28;20030;-57
2021/10/07 03:30:47;;;;;;;2.63;1.98;;;;;;;;;;4970286;28;20030;-56
2021/10/07 03:33:12;;;;;;;2.10;1.77;;;;;;;;;;4974991;28;20030;-57
2021/10/07 03:35:39;;;;;;;3.83;1.83;;;;;;;;;;4968246;28;20469;-56
2021/10/07 03:38:04;;;;;;;2.20;1.67;;;;;;;;;;4967569;28;20109;-57
2021/10/07 03:40:31;;;;;;;4.90;1.77;;;;;;;;;;4957730;28;20106;-57
2021/10/07 03:42:57;;;;;;;1.73;1.63;;;;;;;;;;4971191;28;20125;-57
2021/10/07 03:45:23;;;;;;;3.03;1.90;;;;;;;;;;4967226;28;20038;-56
2021/10/07 03:47:48;;;;;;;3.28;1.80;;;;;;;;;;4970932;28;20042;-57
2021/10/07 03:50:13;;;;;;;3.25;2.03;;;;;;;;;;4970779;28;20038;-57
2021/10/07 03:52:39;;;;;;;3.28;1.70;;;;;;;;;;4951145;28;20041;-57
2021/10/07 03:55:05;;;;;;;4.05;1.58;;;;;;;;;;4970025;28;20037;-58
2021/10/07 03:57:30;;;;;;;2.67;1.75;;;;;;;;;;4969133;28;20027;-57
2021/10/07 03:59:56;;;;;;;2.03;1.80;;;;;;;;;;4965176;28;20483;-58
2021/10/07 04:02:21;;;;;;;2.10;1.80;;;;;;;;;;4966109;28;20121;-55
2021/10/07 04:04:47;;;;;;;2.55;1.90;;;;;;;;;;4968527;28;20039;-57
2021/10/07 04:07:13;;;;;;;2.97;2.00;;;;;;;;;;4946305;28;20110;-57
2021/10/07 04:09:38;;;;;;;4.82;2.38;;;;;;;;;;4968723;28;20612;-58
2021/10/07 04:12:04;;;;;;;7.38;2.15;;;;;;;;;;4971607;28;20608;-59
2021/10/07 04:14:29;;;;;;;2.80;1.77;;;;;;;;;;4969012;28;20130;-59
2021/10/07 04:16:55;;;;;;;4.53;2.10;;;;;;;;;;4968014;28;20469;-59
2021/10/07 04:19:20;;;;;;;4.55;2.13;;;;;;;;;;4966294;28;20027;-59
2021/10/07 04:21:47;;;;;;;8.30;3.45;;;;;;;;;;4954782;28;20026;-59
2021/10/07 04:24:13;;;;;;;5.40;2.92;;;;;;;;;;4962393;28;20058;-58
2021/10/07 04:26:38;;;;;;;4.10;2.85;;;;;;;;;;4965955;28;20060;-59
2021/10/07 04:29:03;;;;;;;3.47;2.50;;;;;;;;;;4966736;28;20589;-58
2021/10/07 04:31:30;;;;;;;5.03;2.08;;;;;;;;;;4966131;28;20445;-58
2021/10/07 04:33:55;;;;;;;3.75;2.10;;;;;;;;;;4961333;28;20023;-57
2021/10/07 04:36:21;;;;;;;5.53;2.55;;;;;;;;;;4971222;28;20035;-58
2021/10/07 04:38:47;;;;;;;3.67;2.58;;;;;;;;;;4968394;28;20062;-58
2021/10/07 04:41:12;;;;;;;7.40;3.63;;;;;;;;;;4966571;28;20054;-58
2021/10/07 04:43:38;;;;;;;7.20;3.42;;;;;;;;;;4966489;28;20105;-58
2021/10/07 04:46:04;;;;;;;5.88;2.08;;;;;;;;;;4969614;28;20022;-57
2021/10/07 04:48:30;;;;;;;3.75;2.22;;;;;;;;;;4964052;28;20046;-58
2021/10/07 04:50:56;;;;;;;4.07;2.30;;;;;;;;;;4966252;28;20027;-58
2021/10/07 04:53:22;;;;;;;7.88;3.28;;;;;;;;;;4970789;28;20041;-58
2021/10/07 04:55:50;;;;;;;7.72;3.75;;;;;;;;;;4951007;28;20042;-58
2021/10/07 04:58:16;;;;;;;5.10;3.03;;;;;;;;;;4968075;28;20023;-58
2021/10/07 05:00:42;;;;;;;3.22;2.22;;;;;;;;;;4966188;28;20386;-58
2021/10/07 05:03:08;;;;;;;2.75;2.00;;;;;;;;;;4965832;28;20082;-58
2021/10/07 05:05:33;;;;;;;5.75;2.08;;;;;;;;;;4963294;28;20027;-58
2021/10/07 05:07:59;;;;;;;3.63;2.50;;;;;;;;;;4963067;28;20037;-57
2021/10/07 05:10:24;;;;;;;5.25;2.70;;;;;;;;;;4947814;28;20034;-59
2021/10/07 05:12:50;;;;;;;7.80;2.72;;;;;;;;;;4948049;28;20054;-59
2021/10/07 05:15:15;;;;;;;5.97;2.65;;;;;;;;;;4965617;28;20065;-59
2021/10/07 05:17:40;;;;;;;3.70;2.22;;;;;;;;;;4950785;28;20043;-58
2021/10/07 05:20:07;;;;;;;5.18;3.10;;;;;;;;;;4949754;28;20169;-60
2021/10/07 05:22:34;;;;;;;6.22;2.88;;;;;;;;;;4969250;28;20069;-60
2021/10/07 05:24:59;;;;;;;7.75;3.28;;;;;;;;;;4968374;28;20093;-59
2021/10/07 05:27:25;;;;;;;5.40;3.70;;;;;;;;;;4969371;28;20022;-60
2021/10/07 05:29:50;;;;;;;6.40;4.05;;;;;;;;;;4962215;28;20633;-59
2021/10/07 05:32:15;;;;;;;5.53;3.90;;;;;;;;;;4964065;28;20093;-59
2021/10/07 05:34:41;;;;;;;3.75;2.50;;;;;;;;;;4948133;28;20521;-59
2021/10/07 05:37:06;;;;;;;2.70;2.20;;;;;;;;;;4964107;28;20438;-59
2021/10/07 05:39:32;;;;;;;3.97;2.45;;;;;;;;;;4947333;28;20022;-58
2021/10/07 05:41:57;;;;;;;6.15;3.65;;;;;;;;;;4963787;28;20056;-58
2021/10/07 05:44:23;;;;;;;5.45;3.75;;;;;;;;;;4964750;28;20026;-58
2021/10/07 05:46:48;;;;;;;8.57;4.63;;;;;;;;;;4966481;28;20034;-58
2021/10/07 05:49:14;;;;;;;6.30;3.70;;;;;;;;;;4962186;28;20045;-58
2021/10/07 05:51:41;;;;;;;4.20;2.95;;;;;;;;;;4964578;28;20022;-58
2021/10/07 05:54:06;;;;;;;4.72;2.97;;;;;;;;;;4966197;28;20039;-60
2021/10/07 05:56:32;;;;;;;4.97;2.60;;;;;;;;;;4966870;28;20034;-58
2021/10/07 05:58:57;;;;;;;6.65;2.83;;;;;;;;;;4960838;28;20557;-58
2021/10/07 06:01:23;;;;;;;4.30;2.60;;;;;;;;;;4961254;28;20042;-58
2021/10/07 06:03:48;;;;;;;5.55;2.55;;;;;;;;;;4952727;28;20441;-58
2021/10/07 06:06:14;;;;;;;4.03;2.70;;;;;;;;;;4967986;28;20062;-59
2021/10/07 06:08:39;;;;;;;3.67;2.45;;;;;;;;;;4945033;28;20043;-58
2021/10/07 06:11:04;;;;;;;5.32;2.90;;;;;;;;;;4953742;28;20053;-58
2021/10/07 06:13:30;;;;;;;5.03;2.78;;;;;;;;;;4965376;28;20054;-58
2021/10/07 06:15:56;;;;;;;4.45;2.92;;;;;;;;;;4948594;28;20133;-59
2021/10/07 06:18:21;;;;;;;6.20;3.00;;;;;;;;;;4964251;28;20033;-59
2021/10/07 06:20:47;;;;;;;8.63;6.10;;;;;;;;;;4956721;28;20546;-59
2021/10/07 06:23:13;;;;;;;12.30;7.68;;;;;;;;;;4962501;28;20034;-59
2021/10/07 06:25:38;;;;;;;7.68;4.63;;;;;;;;;;4966372;28;20077;-59
2021/10/07 06:28:05;;;;;;;6.20;3.00;;;;;;;;;;4961720;28;20378;-59
2021/10/07 06:30:31;;;;;;;6.75;4.28;;;;;;;;;;4957387;28;20046;-59
2021/10/07 06:32:58;;;;;;;7.28;4.70;;;;;;;;;;4965170;28;20031;-59
2021/10/07 06:35:24;;;;;;;8.18;5.22;;;;;;;;;;4966467;28;20149;-59
2021/10/07 06:37:50;;;;;;;9.68;5.28;;;;;;;;;;4976690;28;20567;-59
2021/10/07 06:40:15;;;;;;;4.97;4.10;;;;;;;;;;4954242;28;20115;-59
2021/10/07 06:42:41;;;;;;;6.15;4.68;;;;;;;;;;4975032;28;20580;-59
2021/10/07 06:45:08;;;;;;;5.45;3.80;;;;;;;;;;4978411;28;20224;-59
2021/10/07 06:47:34;;;;;;;6.32;3.92;;;;;;;;;;4972244;28;20035;-59
2021/10/07 06:50:01;;;;;;;6.45;3.90;;;;;;;;;;4972785;28;20034;-59
2021/10/07 06:52:26;;;;;;;6.30;3.67;;;;;;;;;;4977091;28;20026;-58
2021/10/07 06:54:52;;;;;;;5.45;2.88;;;;;;;;;;4970741;28;20031;-58
2021/10/07 06:57:17;;;;;;;4.75;2.80;;;;;;;;;;4956894;28;20038;-59
2021/10/07 06:59:42;;;;;;;6.60;2.03;;;;;;;;;;4969876;28;20109;-59
2021/10/07 07:02:08;;;;;;;2.97;2.10;;;;;;;;;;4971098;28;20121;-59
2021/10/07 07:04:33;;;;;;;4.45;2.28;;;;;;;;;;4970675;28;20157;-59
2021/10/07 07:06:59;;;;;;;5.22;2.55;;;;;;;;;;4970902;28;20049;-59
2021/10/07 07:09:24;;;;;;;6.80;3.10;;;;;;;;;;4973048;28;20026;-60
2021/10/07 07:11:51;;;;;;;8.13;3.30;;;;;;;;;;4972327;28;20104;-58
2021/10/07 07:14:17;;;;;;;6.80;3.22;;;;;;;;;;4969117;28;20034;-57
2021/10/07 07:16:43;;;;;;;5.20;3.28;;;;;;;;;;4975485;28;20428;-58
2021/10/07 07:19:09;;;;;;;4.63;3.25;;;;;;;;;;4969449;28;20027;-58
2021/10/07 07:21:36;;;;;;;6.30;3.22;;;;;;;;;;4972360;28;20054;-58
2021/10/07 07:24:03;;;;;;;5.88;3.35;;;;;;;;;;4971060;28;20038;-58
2021/10/07 07:26:31;;;;;;;5.65;3.53;;;;;;;;;;4974217;28;20370;-58
2021/10/07 07:28:57;;;;;;;6.05;4.20;;;;;;;;;;4971967;28;20409;-58
2021/10/07 07:31:24;;;;;;;5.85;3.75;;;;;;;;;;4973724;28;20034;-58
2021/10/07 07:33:49;;;;;;;6.43;3.80;;;;;;;;;;4974558;28;20441;-58
2021/10/07 07:36:16;;;;;;;5.45;4.05;;;;;;;;;;4973437;28;20293;-58
2021/10/07 07:38:42;;;;;;;8.52;4.88;;;;;;;;;;4977146;28;20034;-58
2021/10/07 07:41:09;;;;;;;8.80;4.53;;;;;;;;;;4971685;28;20027;-58
2021/10/07 07:43:35;;;;;;;7.35;3.90;;;;;;;;;;4971006;28;20039;-59
2021/10/07 07:46:00;;;;;;;5.82;3.70;;;;;;;;;;4954213;28;20061;-58
2021/10/07 07:48:25;;;;;;;8.18;4.57;;;;;;;;;;4951505;28;20026;-58
2021/10/07 07:50:51;;;;;;;5.68;4.20;;;;;;;;;;4972650;28;20503;-58
2021/10/07 07:53:16;;;;;;;7.60;4.45;;;;;;;;;;4966786;28;20427;-58
2021/10/07 07:55:42;;;;;;;8.50;4.03;;;;;;;;;;4963715;28;20038;-58
2021/10/07 07:58:09;;;;;;;5.93;4.03;;;;;;;;;;4952290;28;20065;-59
2021/10/07 08:00:36;;;;;;;11.75;4.38;;;;;;;;;;4965223;28;20027;-58
2021/10/07 08:03:01;;;;;;;7.85;4.30;;;;;;;;;;4969851;28;20793;-58
2021/10/07 08:05:27;;;;;;;9.88;4.82;;;;;;;;;;4968096;28;20109;-57
2021/10/07 08:07:52;;;;;;;7.57;3.67;;;;;;;;;;4970568;28;20101;-58
2021/10/07 08:10:18;;;;;;;4.97;3.25;;;;;;;;;;4967787;28;20046;-58
2021/10/07 08:12:44;;;;;;;5.80;3.25;;;;;;;;;;4944854;28;20027;-58
2021/10/07 08:15:10;;;;;;;7.20;2.95;;;;;;;;;;4969384;28;20133;-58
2021/10/07 08:17:36;;;;;;;6.47;3.65;;;;;;;;;;4954697;28;20457;-58
2021/10/07 08:20:04;;;;;;;6.18;3.33;;;;;;;;;;4951161;28;21380;-58
2021/10/07 08:22:29;;;;;;;7.32;3.70;;;;;;;;;;4970561;28;20400;-58
2021/10/07 08:24:55;;;;;;;7.05;4.05;;;;;;;;;;4970944;28;20121;-58
2021/10/07 08:27:20;;;;;;;7.35;4.43;;;;;;;;;;4970409;28;20034;-58
2021/10/07 08:29:46;;;;;;;5.55;3.75;;;;;;;;;;4974202;28;20424;-58
2021/10/07 08:32:12;;;;;;;8.82;4.85;;;;;;;;;;4952509;28;20112;-57
2021/10/07 08:34:37;;;;;;;6.45;4.20;;;;;;;;;;4951169;28;20520;-58
2021/10/07 08:37:04;;;;;;;8.05;4.78;;;;;;;;;;4969974;28;20568;-58
2021/10/07 08:39:30;;;;;;;6.25;4.38;;;;;;;;;;4966693;28;20076;-58
2021/10/07 08:41:56;;;;;;;7.30;3.95;;;;;;;;;;4951787;28;20041;-58
2021/10/07 08:44:22;;;;;;;10.93;5.10;;;;;;;;;;4966738;28;20033;-58
2021/10/07 08:46:50;;;;;;;9.85;5.38;;;;;;;;;;4963692;28;20062;-58
2021/10/07 08:49:19;;;;;;;8.20;4.80;;;;;;;;;;4964666;28;20049;-58
2021/10/07 08:51:45;;;;;;;;;;;;;;;;;;4968624;28;20060;-58
2021/10/07 08:54:11;;;;;;;6.95;4.85;;;;;;;;;;4965398;28;20373;-58
2021/10/07 08:56:38;;;;;;;11.55;4.88;;;;;;;;;;4949041;28;20061;-58
2021/10/07 08:59:05;;;;;;;8.55;4.97;;;;;;;;;;4961505;28;20030;-58
2021/10/07 09:01:39;;;;;;;6.70;4.72;;;;;;;;;;4968111;28;20022;-58
2021/10/07 09:04:19;;;;;;;8.95;4.70;;;;;;;;;;4968398;28;20026;-58
2021/10/07 09:06:55;;;;;;;9.88;5.38;;;;;;;;;;4952822;28;20142;-58
2021/10/07 09:09:22;;;;;;;9.90;5.15;;;;;;;;;;4952392;28;20361;-58
2021/10/07 09:12:00;;;;;;;9.52;5.50;;;;;;;;;;4968045;28;20485;-58
2021/10/07 09:14:29;;;;;;;14.05;5.35;;;;;;;;;;4966874;28;20165;-58
2021/10/07 09:16:56;;;;;;;13.75;5.50;;;;;;;;;;4971019;28;20036;-58
2021/10/07 09:19:44;;;;;;;11.00;5.82;;;;;;;;;;4945786;28;20038;-58
2021/10/07 09:22:20;;;;;;;12.88;5.60;;;;;;;;;;4966652;28;20409;-58
2021/10/07 09:24:53;;;;;;;11.85;5.93;;;;;;;;;;4964967;28;20030;-58
2021/10/07 09:27:29;;;;;;;12.52;6.80;;;;;;;;;;4968815;28;20045;-58
2021/10/07 09:29:56;;;;;;;12.13;6.75;;;;;;;;;;4965400;28;20053;-58
2021/10/07 09:32:31;;;;;;;11.02;6.05;;;;;;;;;;4964335;28;20054;-58
2021/10/07 09:35:01;;;;;;;12.73;6.20;;;;;;;;;;4964666;28;20026;-58
2021/10/07 09:37:41;;;;;;;10.48;5.47;;;;;;;;;;4963682;28;20069;-58
2021/10/07 09:40:10;;;;;;;11.50;6.25;;;;;;;;;;4970689;28;20515;-58
2021/10/07 09:42:42;;;;;;;9.60;5.78;;;;;;;;;;4969279;28;20046;-58
2021/10/07 09:45:26;;;;;;;11.73;5.75;;;;;;;;;;4968572;28;20181;-58
2021/10/07 09:48:21;;;;;;;8.60;5.88;;;;;;;;;;4966296;28;20188;-58
2021/10/07 09:50:47;;;;;;;8.77;6.53;;;;;;;;;;4970309;28;20459;-58
2021/10/07 09:53:16;;;;;;;10.25;5.85;;;;;;;;;;4968259;28;20022;-60
2021/10/07 09:55:43;;;;;;;;;;;;;;;;;;4965843;28;20026;-59
2021/10/07 09:58:22;;;;;;;11.57;5.78;;;;;;;;;;4968261;28;19998;-59
2021/10/07 10:00:53;;;;;;;14.95;6.22;;;;;;;;;;4969373;28;20409;-59
2021/10/07 10:03:19;;;;;;;12.85;6.55;;;;;;;;;;4966470;28;20043;-59
2021/10/07 10:05:46;;;;;;;15.07;6.78;;;;;;;;;;4968511;28;20038;-59
2021/10/07 10:08:16;;;;;;;13.18;6.65;;;;;;;;;;4969445;28;20027;-59
2021/10/07 10:10:44;;;;;;;11.93;6.32;;;;;;;;;;4968127;28;20224;-60
2021/10/07 10:13:11;;;;;;;10.85;6.18;;;;;;;;;;4967323;28;20030;-59
2021/10/07 10:15:37;;;;;;;10.93;6.57;;;;;;;;;;4953166;28;20041;-59
2021/10/07 10:18:16;;;;;;;7.28;5.72;;;;;;;;;;4968343;28;20045;-59
2021/10/07 10:20:45;;;;;;;14.98;7.38;;;;;;;;;;4964995;28;20030;-59
2021/10/07 10:23:15;;;;;;;10.55;6.72;;;;;;;;;;4966800;28;20027;-60
2021/10/07 10:26:09;;;;;;;12.95;7.18;;;;;;;;;;4953134;28;20034;-59
2021/10/07 10:28:35;;;;;;;9.88;6.03;;;;;;;;;;4953794;28;20118;-60
2021/10/07 10:31:03;;;;;;;10.35;6.47;;;;;;;;;;4963832;28;20568;-59
2021/10/07 10:33:43;;;;;;;6.78;3.70;;;;;;;;;;4951067;28;20031;-57
2021/10/07 10:36:33;;;;;;;12.45;5.82;;;;;;;;;;4967968;28;20030;-59
2021/10/07 10:39:14;;;;;;;7.57;5.82;;;;;;;;;;4967111;28;20116;-59
2021/10/07 10:42:06;;;;;;;8.27;5.60;;;;;;;;;;4944993;28;20035;-60
2021/10/07 10:44:40;;;;;;;10.02;6.35;;;;;;;;;;4967410;28;20026;-59
2021/10/07 10:47:06;;;;;;;11.63;5.90;;;;;;;;;;4972010;28;20097;-59
2021/10/07 10:49:40;;;;;;;12.20;6.70;;;;;;;;;;4973346;28;20042;-59
2021/10/07 10:52:28;;;;;;;9.93;6.03;;;;;;;;;;4963293;28;20113;-59
2021/10/07 10:54:55;;;;;;;12.27;6.80;;;;;;;;;;4965209;28;20037;-60
2021/10/07 10:57:44;;;;;;;4.97;3.80;;;;;;;;;;4969600;28;20023;-60
2021/10/07 11:00:14;;;;;;;6.68;3.72;;;;;;;;;;4948035;28;20031;-59
2021/10/07 11:02:46;;;;;;;;;;;;;;;;;;4966747;28;20093;-60
2021/10/07 11:05:16;;;;;;;9.43;6.05;;;;;;;;;;4965503;28;19929;-59
2021/10/07 11:07:42;;;;;;;10.43;6.68;;;;;;;;;;4963717;28;20089;-58
2021/10/07 11:10:10;;;;;;;11.00;5.43;;;;;;;;;;4966315;28;20034;-59
2021/10/07 11:12:44;;;;;;;7.13;5.80;;;;;;;;;;4947556;28;20039;-59
2021/10/07 11:15:10;;;;;;;7.60;5.47;;;;;;;;;;4965259;28;20027;-59
2021/10/07 11:17:42;;;;;;;7.38;5.80;;;;;;;;;;4967453;28;20034;-58
2021/10/07 11:20:11;;;;;;;7.88;6.07;;;;;;;;;;4964793;28;20747;-59
2021/10/07 11:22:37;;;;;;;10.15;6.13;;;;;;;;;;4966216;28;20043;-59
2021/10/07 11:25:04;;;;;;;8.77;5.55;;;;;;;;;;4975311;28;20092;-59
2021/10/07 11:27:35;;;;;;;9.50;5.97;;;;;;;;;;4969531;28;20037;-59
2021/10/07 11:30:02;;;;;;;11.55;5.60;;;;;;;;;;4949894;28;20034;-59
2021/10/07 11:32:29;;;;;;;11.15;5.95;;;;;;;;;;4970893;28;20404;-59
2021/10/07 11:35:04;;;;;;;12.30;6.30;;;;;;;;;;4966609;28;20435;-59
2021/10/07 11:37:55;;;;;;;8.45;5.47;;;;;;;;;;4968567;28;20053;-59
2021/10/07 11:40:31;;;;;;;11.50;6.28;;;;;;;;;;4967510;28;20023;-59
2021/10/07 11:43:03;;;;;;;9.95;5.30;;;;;;;;;;4952351;28;20042;-59
2021/10/07 11:45:39;;;;;;;8.82;5.75;;;;;;;;;;4966034;28;20350;-59
2021/10/07 11:48:08;;;;;;;9.32;5.65;;;;;;;;;;4966348;28;20029;-59
2021/10/07 11:50:45;;;;;;;6.43;5.22;;;;;;;;;;4953238;28;20064;-58
2021/10/07 11:53:12;;;;;;;7.65;5.50;;;;;;;;;;4970004;28;20038;-59
2021/10/07 11:55:43;;;;;;;10.70;5.32;;;;;;;;;;4968760;28;20073;-59
2021/10/07 11:58:09;;;;;;;9.00;4.93;;;;;;;;;;4974308;28;20428;-59
2021/10/07 12:00:44;;;;;;;8.57;4.32;;;;;;;;;;4974362;28;20121;-59
2021/10/07 12:03:23;;;;;;;7.15;4.65;;;;;;;;;;4967163;28;20389;-60
2021/10/07 12:05:55;;;;;;;7.93;4.72;;;;;;;;;;4965292;28;20144;-59
2021/10/07 12:08:24;;;;;;;7.43;4.93;;;;;;;;;;4967602;28;20034;-59
2021/10/07 12:10:59;;;;;;;6.63;4.90;;;;;;;;;;4951427;28;20031;-59
2021/10/07 12:13:30;;;;;;;6.15;4.63;;;;;;;;;;4947994;28;20759;-59
2021/10/07 12:16:04;;;;;;;7.45;4.82;;;;;;;;;;4970648;28;20078;-58
2021/10/07 12:18:34;;;;;;;7.72;5.55;;;;;;;;;;4967147;28;20066;-58
2021/10/07 12:20:59;;;;;;;;;;;;;;;;;;4972785;28;20057;-59
2021/10/07 12:23:25;;;;;;;8.00;5.80;;;;;;;;;;4969676;28;20329;-59
2021/10/07 12:25:56;;;;;;;6.90;5.32;;;;;;;;;;4955670;28;20061;-59
2021/10/07 12:28:22;;;;;;;7.38;4.70;;;;;;;;;;4969395;28;20023;-59
2021/10/07 12:30:54;;;;;;;7.70;4.18;;;;;;;;;;4947998;28;20675;-59
2021/10/07 12:33:20;;;;;;;8.88;5.43;;;;;;;;;;4970182;28;20081;-59
2021/10/07 12:36:09;;;;;;;7.13;5.50;;;;;;;;;;4970221;28;20026;-59
2021/10/07 12:38:49;;;;;;;8.15;5.20;;;;;;;;;;4967709;28;20117;-58
2021/10/07 12:41:15;;;;;;;;;;;;;;;;;;4964779;28;20033;-59
2021/10/07 12:43:57;;;;;;;8.25;5.30;;;;;;;;;;4964649;28;19922;-59
2021/10/07 12:46:24;;;;;;;7.75;4.82;;;;;;;;;;4949050;28;20110;-59
2021/10/07 12:49:03;;;;;;;8.15;5.63;;;;;;;;;;4972336;28;20117;-59
2021/10/07 12:51:33;;;;;;;15.52;6.10;;;;;;;;;;4962866;28;20027;-56
2021/10/07 12:53:59;;;;;;;8.57;5.25;;;;;;;;;;4950784;28;20030;-57
2021/10/07 12:56:30;;;;;;;14.85;8.57;;;;;;;;;;4966896;28;20500;-56
2021/10/07 12:59:02;;;;;;;11.70;6.28;;;;;;;;;;4965922;28;20034;-56
2021/10/07 13:01:29;;;;;;;9.88;5.50;;;;;;;;;;4963980;28;20018;-56
2021/10/07 13:04:10;;;;;;;6.88;4.53;;;;;;;;;;4966351;28;20401;-57
2021/10/07 13:06:36;;;;;;;5.22;4.65;;;;;;;;;;4968236;28;20496;-57
2021/10/07 13:09:02;;;;;;;9.57;5.00;;;;;;;;;;4965663;28;20042;-56
2021/10/07 13:11:28;;;;;;;13.50;4.75;;;;;;;;;;4968202;28;20170;-56
2021/10/07 13:13:53;;;;;;;9.38;5.20;;;;;;;;;;4970099;28;20038;-57
2021/10/07 13:16:19;;;;;;;5.95;4.47;;;;;;;;;;4963751;28;20035;-56
2021/10/07 13:18:45;;;;;;;8.05;4.50;;;;;;;;;;4963894;28;20145;-56
2021/10/07 13:21:11;;;;;;;6.03;3.78;;;;;;;;;;4947712;28;20031;-56
2021/10/07 13:23:36;;;;;;;8.05;4.18;;;;;;;;;;4967246;28;20374;-59
2021/10/07 13:26:05;;;;;;;9.40;5.05;;;;;;;;;;4968215;28;20113;-59
2021/10/07 13:28:31;;;;;;;6.60;5.05;;;;;;;;;;4965921;28;20409;-59
2021/10/07 13:30:56;;;;;;;9.88;6.70;;;;;;;;;;4968808;28;20035;-58
2021/10/07 13:33:25;;;;;;;9.68;6.35;;;;;;;;;;4965312;28;20026;-59
2021/10/07 13:35:51;;;;;;;9.10;5.63;;;;;;;;;;4965902;28;20046;-59
2021/10/07 13:38:21;;;;;;;9.82;6.10;;;;;;;;;;4968389;28;20478;-59
2021/10/07 13:40:51;;;;;;;9.35;6.28;;;;;;;;;;4967913;28;20552;-58
2021/10/07 13:43:16;;;;;;;9.60;6.47;;;;;;;;;;4964962;28;20027;-59
2021/10/07 13:45:42;;;;;;;8.23;5.80;;;;;;;;;;4967770;28;20039;-59
2021/10/07 13:48:07;;;;;;;9.02;5.63;;;;;;;;;;4967399;28;20030;-59
2021/10/07 13:50:33;;;;;;;8.30;6.22;;;;;;;;;;4965408;28;20031;-59
2021/10/07 13:52:59;;;;;;;7.43;5.90;;;;;;;;;;4967746;28;20854;-59
2021/10/07 13:55:26;;;;;;;12.30;6.57;;;;;;;;;;4967523;28;20033;-59
2021/10/07 13:57:54;;;;;;;8.68;5.90;;;;;;;;;;4951836;28;20402;-59
2021/10/07 14:00:20;;;;;;;12.07;6.82;;;;;;;;;;4967753;28;20022;-59
2021/10/07 14:02:46;;;;;;;8.05;5.57;;;;;;;;;;4963164;28;20114;-59
2021/10/07 14:05:12;;;;;;;9.95;6.38;;;;;;;;;;4965269;28;20097;-59
2021/10/07 14:07:37;;;;;;;8.75;5.50;;;;;;;;;;4968345;28;20030;-59
2021/10/07 14:10:04;;;;;;;10.38;5.72;;;;;;;;;;4967002;28;20178;-58
2021/10/07 14:12:29;;;;;;;10.05;6.60;;;;;;;;;;4966130;28;20039;-59
2021/10/07 14:14:55;;;;;;;9.63;5.22;;;;;;;;;;4965159;28;20037;-59
2021/10/07 14:17:22;;;;;;;14.25;6.47;;;;;;;;;;4969070;28;20023;-59
2021/10/07 14:19:47;;;;;;;7.72;5.20;;;;;;;;;;4966098;28;20050;-59
2021/10/07 14:22:13;;;;;;;6.65;5.13;;;;;;;;;;4949344;28;20022;-59
2021/10/07 14:24:39;;;;;;;10.15;5.97;;;;;;;;;;4974986;28;20118;-59
2021/10/07 14:27:04;;;;;;;9.18;5.03;;;;;;;;;;4970369;28;20517;-59
2021/10/07 14:29:30;;;;;;;10.50;5.30;;;;;;;;;;4950314;28;20038;-59
2021/10/07 14:31:56;;;;;;;7.55;5.45;;;;;;;;;;4965600;28;20469;-59
2021/10/07 14:34:21;;;;;;;9.90;5.93;;;;;;;;;;4954937;28;20490;-59
2021/10/07 14:36:47;;;;;;;11.52;6.45;;;;;;;;;;4948864;28;20089;-59
2021/10/07 14:39:12;;;;;;;9.50;5.93;;;;;;;;;;4966835;28;20019;-59
2021/10/07 14:41:37;;;;;;;12.73;6.78;;;;;;;;;;4948541;28;20026;-59
2021/10/07 14:44:03;;;;;;;10.63;5.70;;;;;;;;;;4966912;28;20033;-59
2021/10/07 14:46:29;;;;;;;7.28;5.72;;;;;;;;;;4950347;28;20034;-59
2021/10/07 14:48:54;;;;;;;6.88;4.72;;;;;;;;;;4953056;28;20478;-59
2021/10/07 14:51:20;;;;;;;10.00;5.50;;;;;;;;;;4962099;28;20129;-58